createdAt,value
2018-12-23T00:02:02.928Z,6.90
2018-12-23T00:04:31.799Z,6.90
2018-12-23T00:07:00.279Z,6.80
2018-12-23T00:09:32.615Z,6.90
2018-12-23T00:12:01.885Z,6.80
2018-12-23T00:14:30.265Z,6.90
2018-12-23T00:16:58.687Z,6.80
2018-12-23T00:19:27.090Z,6.70
2018-12-23T00:21:56.064Z,6.70
2018-12-23T00:24:25.312Z,6.80
2018-12-23T00:26:54.747Z,6.80
2018-12-23T00:29:23.066Z,7.00
2018-12-23T00:31:51.439Z,6.90
2018-12-23T00:34:19.919Z,6.90
2018-12-23T00:36:48.378Z,6.90
2018-12-23T00:39:16.788Z,6.90
2018-12-23T00:41:45.220Z,6.90
2018-12-23T00:44:13.744Z,6.80
2018-12-23T00:46:42.165Z,6.80
2018-12-23T00:49:10.636Z,6.80
2018-12-23T00:51:38.986Z,6.80
2018-12-23T00:54:07.724Z,6.90
2018-12-23T00:56:36.419Z,6.80
2018-12-23T00:59:04.807Z,6.80
2018-12-23T01:01:33.233Z,6.80
2018-12-23T01:04:01.611Z,6.90
2018-12-23T01:06:29.985Z,6.80
2018-12-23T01:08:58.342Z,6.70
2018-12-23T01:11:26.717Z,6.70
2018-12-23T01:13:55.102Z,6.70
2018-12-23T01:16:23.602Z,6.80
2018-12-23T01:18:52.050Z,6.60
2018-12-23T01:21:20.429Z,6.70
2018-12-23T01:23:48.804Z,6.70
2018-12-23T01:26:17.281Z,6.50
2018-12-23T01:28:46.794Z,6.70
2018-12-23T01:31:15.219Z,6.60
2018-12-23T01:33:43.648Z,6.70
2018-12-23T01:36:12.027Z,6.60
2018-12-23T01:38:40.420Z,6.70
2018-12-23T01:41:09.411Z,6.50
2018-12-23T01:43:37.850Z,6.50
2018-12-23T01:46:06.511Z,6.50
2018-12-23T01:48:36.113Z,6.50
2018-12-23T01:51:04.563Z,6.50
2018-12-23T01:53:33.213Z,6.60
2018-12-23T01:56:01.644Z,6.60
2018-12-23T01:58:30.037Z,6.60
2018-12-23T02:00:58.458Z,6.60
2018-12-23T02:03:26.870Z,6.60
2018-12-23T02:05:55.413Z,6.60
2018-12-23T02:08:23.849Z,6.60
2018-12-23T02:10:52.179Z,6.50
2018-12-23T02:13:21.163Z,6.50
2018-12-23T02:15:49.934Z,6.50
2018-12-23T02:18:18.300Z,6.50
2018-12-23T02:20:46.762Z,6.50
2018-12-23T02:23:15.163Z,6.50
2018-12-23T02:25:44.352Z,6.40
2018-12-23T02:28:12.695Z,6.40
2018-12-23T02:30:41.071Z,6.50
2018-12-23T02:33:10.016Z,6.50
2018-12-23T02:35:38.430Z,6.50
2018-12-23T02:38:07.356Z,6.40
2018-12-23T02:40:35.930Z,6.40
2018-12-23T02:43:05.824Z,6.40
2018-12-23T02:45:34.357Z,6.40
2018-12-23T02:48:02.745Z,6.30
2018-12-23T02:50:31.060Z,6.20
2018-12-23T02:52:59.441Z,6.30
2018-12-23T02:55:27.809Z,6.30
2018-12-23T02:57:59.075Z,6.30
2018-12-23T03:00:27.680Z,6.40
2018-12-23T03:02:56.121Z,6.40
2018-12-23T03:05:24.614Z,6.50
2018-12-23T03:07:53.122Z,6.50
2018-12-23T03:10:21.767Z,6.60
2018-12-23T03:12:50.890Z,6.50
2018-12-23T03:15:19.260Z,6.50
2018-12-23T03:17:47.619Z,6.50
2018-12-23T03:20:16.074Z,6.50
2018-12-23T03:22:44.722Z,6.60
2018-12-23T03:25:13.090Z,6.50
2018-12-23T03:27:41.795Z,6.50
2018-12-23T03:30:10.192Z,6.50
2018-12-23T03:32:38.633Z,6.50
2018-12-23T03:35:08.006Z,6.50
2018-12-23T03:37:36.470Z,6.50
2018-12-23T03:40:05.180Z,6.50
2018-12-23T03:42:33.976Z,6.60
2018-12-23T03:45:02.371Z,6.60
2018-12-23T03:47:30.726Z,6.60
2018-12-23T03:49:59.095Z,6.60
2018-12-23T03:52:27.901Z,6.60
2018-12-23T03:55:00.279Z,6.70
2018-12-23T03:57:28.754Z,6.70
2018-12-23T03:59:57.225Z,6.70
2018-12-23T04:02:25.652Z,6.70
2018-12-23T04:04:54.122Z,6.70
2018-12-23T04:07:22.498Z,6.80
2018-12-23T04:09:51.182Z,6.60
2018-12-23T04:12:19.609Z,6.70
2018-12-23T04:14:49.054Z,6.80
2018-12-23T04:17:18.094Z,6.80
2018-12-23T04:19:46.506Z,6.80
2018-12-23T04:22:14.961Z,6.80
2018-12-23T04:24:44.060Z,6.80
2018-12-23T04:27:12.510Z,6.80
2018-12-23T04:29:40.888Z,6.70
2018-12-23T04:32:09.543Z,6.80
2018-12-23T04:34:38.000Z,6.80
2018-12-23T04:37:06.454Z,6.80
2018-12-23T04:39:34.901Z,6.80
2018-12-23T04:42:03.273Z,6.80
2018-12-23T04:44:31.657Z,6.80
2018-12-23T04:47:00.032Z,6.70
2018-12-23T04:49:28.484Z,6.70
2018-12-23T04:51:56.811Z,6.60
2018-12-23T04:54:25.245Z,6.50
2018-12-23T04:56:53.779Z,6.50
2018-12-23T04:59:22.181Z,6.50
2018-12-23T05:01:50.668Z,6.50
2018-12-23T05:04:19.064Z,6.60
2018-12-23T05:06:47.435Z,6.60
2018-12-23T05:09:15.800Z,6.60
2018-12-23T05:11:45.164Z,6.60
2018-12-23T05:14:14.715Z,6.60
2018-12-23T05:16:43.125Z,6.50
2018-12-23T05:19:11.582Z,6.60
2018-12-23T05:21:40.080Z,6.60
2018-12-23T05:24:08.497Z,6.60
2018-12-23T05:26:36.865Z,6.60
2018-12-23T05:29:05.251Z,6.60
2018-12-23T05:31:33.702Z,6.70
2018-12-23T05:34:02.383Z,6.60
2018-12-23T05:36:30.756Z,6.60
2018-12-23T05:38:59.186Z,6.60
2018-12-23T05:41:27.573Z,6.70
2018-12-23T05:43:56.144Z,6.70
2018-12-23T05:46:24.491Z,6.50
2018-12-23T05:48:52.904Z,6.70
2018-12-23T05:51:21.268Z,6.80
2018-12-23T05:53:49.616Z,6.70
2018-12-23T05:56:17.985Z,6.80
2018-12-23T05:58:46.660Z,6.80
2018-12-23T06:01:15.147Z,6.80
2018-12-23T06:03:43.559Z,6.80
2018-12-23T06:06:11.948Z,7.00
2018-12-23T06:08:40.334Z,6.90
2018-12-23T06:11:08.769Z,6.90
2018-12-23T06:13:37.159Z,6.90
2018-12-23T06:16:05.850Z,6.80
2018-12-23T06:18:34.153Z,6.80
2018-12-23T06:21:02.549Z,6.80
2018-12-23T06:23:30.869Z,6.70
2018-12-23T06:25:59.354Z,6.70
2018-12-23T06:28:27.841Z,6.60
2018-12-23T06:30:56.194Z,6.80
2018-12-23T06:33:24.821Z,6.70
2018-12-23T06:35:53.173Z,6.70
2018-12-23T06:38:21.694Z,6.80
2018-12-23T06:40:50.071Z,6.80
2018-12-23T06:43:18.493Z,6.70
2018-12-23T06:45:46.891Z,6.90
2018-12-23T06:48:15.543Z,6.90
2018-12-23T06:50:43.956Z,6.90
2018-12-23T06:53:12.840Z,6.90
2018-12-23T06:55:41.230Z,7.00
2018-12-23T06:58:10.680Z,7.00
2018-12-23T07:00:39.131Z,7.00
2018-12-23T07:03:07.771Z,7.10
2018-12-23T07:05:37.305Z,7.00
2018-12-23T07:08:05.719Z,7.00
2018-12-23T07:10:34.286Z,7.10
2018-12-23T07:13:02.705Z,7.00
2018-12-23T07:15:31.177Z,7.00
2018-12-23T07:17:59.908Z,7.00
2018-12-23T07:20:28.285Z,6.90
2018-12-23T07:22:57.591Z,7.00
2018-12-23T07:25:26.042Z,7.00
2018-12-23T07:27:54.486Z,7.00
2018-12-23T07:30:23.153Z,7.00
2018-12-23T07:32:51.862Z,7.00
2018-12-23T07:35:20.257Z,7.00
2018-12-23T07:37:48.635Z,7.00
2018-12-23T07:40:17.172Z,7.10
2018-12-23T07:42:45.581Z,7.10
2018-12-23T07:45:14.074Z,7.10
2018-12-23T07:47:42.549Z,7.10
2018-12-23T07:50:11.538Z,7.10
2018-12-23T07:52:40.041Z,7.10
2018-12-23T07:55:08.713Z,7.00
2018-12-23T07:57:37.153Z,7.10
2018-12-23T08:00:05.671Z,7.10
2018-12-23T08:02:34.497Z,7.20
2018-12-23T08:05:03.114Z,7.20
2018-12-23T08:07:36.125Z,7.10
2018-12-23T08:10:02.451Z,7.20
2018-12-23T08:12:30.871Z,7.20
2018-12-23T08:14:59.198Z,7.20
2018-12-23T08:17:27.556Z,7.20
2018-12-23T08:19:56.439Z,7.20
2018-12-23T08:22:25.491Z,7.20
2018-12-23T08:24:53.793Z,7.30
2018-12-23T08:27:22.142Z,7.30
2018-12-23T08:29:50.511Z,7.30
2018-12-23T08:32:18.841Z,7.30
2018-12-23T08:34:47.240Z,7.20
2018-12-23T08:37:15.596Z,7.30
2018-12-23T08:39:43.940Z,7.30
2018-12-23T08:42:12.261Z,7.40
2018-12-23T08:44:40.822Z,7.30
2018-12-23T08:47:10.104Z,7.30
2018-12-23T08:49:38.440Z,7.30
2018-12-23T08:52:06.803Z,7.40
2018-12-23T08:54:35.212Z,7.40
2018-12-23T08:57:03.559Z,7.40
2018-12-23T08:59:32.005Z,7.40
2018-12-23T09:02:00.656Z,7.40
2018-12-23T09:04:29.651Z,7.40
2018-12-23T09:06:58.057Z,7.40
2018-12-23T09:09:26.613Z,7.40
2018-12-23T09:11:55.056Z,7.50
2018-12-23T09:14:23.417Z,7.50
2018-12-23T09:16:51.786Z,7.40
2018-12-23T09:19:20.214Z,7.50
2018-12-23T09:21:48.583Z,7.50
2018-12-23T09:24:16.972Z,7.50
2018-12-23T09:26:45.472Z,7.50
2018-12-23T09:29:13.916Z,7.60
2018-12-23T09:31:42.310Z,7.60
2018-12-23T09:34:10.705Z,7.60
2018-12-23T09:36:39.110Z,7.60
2018-12-23T09:39:07.792Z,7.60
2018-12-23T09:41:36.208Z,7.60
2018-12-23T09:44:04.643Z,7.60
2018-12-23T09:46:33.080Z,7.60
2018-12-23T09:49:01.572Z,7.60
2018-12-23T09:51:30.006Z,7.70
2018-12-23T09:53:58.414Z,7.70
2018-12-23T09:56:26.814Z,7.60
2018-12-23T09:58:55.216Z,7.60
2018-12-23T10:01:23.608Z,7.60
2018-12-23T10:03:51.978Z,7.70
2018-12-23T10:06:20.878Z,7.70
2018-12-23T10:08:49.360Z,7.70
2018-12-23T10:11:17.773Z,7.80
2018-12-23T10:13:47.055Z,7.80
2018-12-23T10:16:15.464Z,7.80
2018-12-23T10:18:43.900Z,7.90
2018-12-23T10:21:13.146Z,7.70
2018-12-23T10:23:41.524Z,7.70
2018-12-23T10:26:16.554Z,7.80
2018-12-23T10:28:45.908Z,7.80
2018-12-23T10:31:16.815Z,7.90
2018-12-23T10:33:46.084Z,7.80
2018-12-23T10:36:16.180Z,7.90
2018-12-23T10:38:45.300Z,7.90
2018-12-23T10:41:14.150Z,8.00
2018-12-23T10:43:42.857Z,8.00
2018-12-23T10:46:11.511Z,8.00
2018-12-23T10:48:40.219Z,8.00
2018-12-23T10:51:09.031Z,8.00
2018-12-23T10:53:39.211Z,8.00
2018-12-23T10:56:08.194Z,8.00
2018-12-23T10:58:37.165Z,8.00
2018-12-23T11:01:06.592Z,8.00
2018-12-23T11:03:36.105Z,8.00
2018-12-23T11:06:05.142Z,8.80
2018-12-23T11:08:33.935Z,8.00
2018-12-23T11:11:02.700Z,10.50
2018-12-23T11:13:31.447Z,8.00
2018-12-23T11:16:00.107Z,8.10
2018-12-23T11:18:29.149Z,8.20
2018-12-23T11:20:57.869Z,8.10
2018-12-23T11:23:26.520Z,8.10
2018-12-23T11:25:55.011Z,8.00
2018-12-23T11:28:23.699Z,8.00
2018-12-23T11:30:52.604Z,8.00
2018-12-23T11:33:21.088Z,8.00
2018-12-23T11:35:49.489Z,7.90
2018-12-23T11:38:17.894Z,7.90
2018-12-23T11:40:46.345Z,7.80
2018-12-23T11:43:14.799Z,7.80
2018-12-23T11:45:43.180Z,7.80
2018-12-23T11:48:11.529Z,7.80
2018-12-23T11:50:39.918Z,7.70
2018-12-23T11:53:08.299Z,7.70
2018-12-23T11:55:37.885Z,7.70
2018-12-23T11:58:06.319Z,7.70
2018-12-23T12:00:34.818Z,7.70
2018-12-23T12:03:03.383Z,7.80
2018-12-23T12:05:32.485Z,7.70
2018-12-23T12:08:01.327Z,7.70
2018-12-23T12:10:29.863Z,7.60
2018-12-23T12:12:58.275Z,7.60
2018-12-23T12:15:26.742Z,7.60
2018-12-23T12:17:55.144Z,7.60
2018-12-23T12:20:23.580Z,7.50
2018-12-23T12:22:52.030Z,7.50
2018-12-23T12:25:20.517Z,7.40
2018-12-23T12:27:48.967Z,7.40
2018-12-23T12:30:17.379Z,7.40
2018-12-23T12:32:45.908Z,7.30
2018-12-23T12:35:14.342Z,7.30
2018-12-23T12:37:42.877Z,7.30
2018-12-23T12:40:11.609Z,7.30
2018-12-23T12:42:40.506Z,7.40
2018-12-23T12:45:09.759Z,7.40
2018-12-23T12:47:38.459Z,7.40
2018-12-23T12:50:07.085Z,7.50
2018-12-23T12:52:36.045Z,7.50
2018-12-23T12:55:04.740Z,7.60
2018-12-23T12:57:33.446Z,7.50
2018-12-23T13:00:02.750Z,7.50
2018-12-23T13:02:31.596Z,7.50
2018-12-23T13:05:00.368Z,7.50
2018-12-23T13:07:38.475Z,7.30
2018-12-23T13:10:07.249Z,7.10
2018-12-23T13:12:37.280Z,7.30
2018-12-23T13:15:06.342Z,7.10
2018-12-23T13:17:35.598Z,7.10
2018-12-23T13:20:04.911Z,7.00
2018-12-23T13:22:34.883Z,7.00
2018-12-23T13:25:04.519Z,7.00
2018-12-23T13:27:34.059Z,7.00
2018-12-23T13:30:04.098Z,6.90
2018-12-23T13:32:33.525Z,7.00
2018-12-23T13:35:04.832Z,6.90
2018-12-23T13:37:35.586Z,6.90
2018-12-23T13:40:15.279Z,7.00
2018-12-23T13:46:24.883Z,6.80
2018-12-23T13:49:09.571Z,6.80
2018-12-23T13:55:58.249Z,6.70
2018-12-23T13:58:40.939Z,6.70
2018-12-23T14:01:23.778Z,6.60
2018-12-23T14:04:06.883Z,6.60
2018-12-23T14:08:48.740Z,6.60
2018-12-23T14:12:25.585Z,6.60
2018-12-23T14:14:54.129Z,6.60
2018-12-23T14:17:22.615Z,6.50
2018-12-23T14:19:51.113Z,6.50
2018-12-23T14:22:19.707Z,6.50
2018-12-23T14:24:48.268Z,6.50
2018-12-23T14:27:17.404Z,6.60
2018-12-23T14:29:45.935Z,6.50
2018-12-23T14:32:14.329Z,6.50
2018-12-23T14:34:42.685Z,6.50
2018-12-23T14:37:11.137Z,6.50
2018-12-23T14:39:39.484Z,6.50
2018-12-23T14:42:07.860Z,6.60
2018-12-23T14:44:36.244Z,6.60
2018-12-23T14:47:04.633Z,6.60
2018-12-23T14:49:33.908Z,6.50
2018-12-23T14:52:03.186Z,6.60
2018-12-23T14:54:31.574Z,6.60
2018-12-23T14:57:00.005Z,6.50
2018-12-23T14:59:28.405Z,6.50
2018-12-23T15:01:56.817Z,6.60
2018-12-23T15:04:25.609Z,6.50
2018-12-23T15:06:54.350Z,6.60
2018-12-23T15:09:22.739Z,6.60
2018-12-23T15:11:51.173Z,6.60
2018-12-23T15:14:19.634Z,6.70
2018-12-23T15:16:48.081Z,6.50
2018-12-23T15:19:16.460Z,6.70
2018-12-23T15:21:44.889Z,6.60
2018-12-23T15:24:13.419Z,6.60
2018-12-23T15:26:41.813Z,6.60
2018-12-23T15:29:11.163Z,6.70
2018-12-23T15:31:39.573Z,6.70
2018-12-23T15:34:08.149Z,6.70
2018-12-23T15:36:36.665Z,6.80
2018-12-23T15:39:07.051Z,6.80
2018-12-23T15:41:35.445Z,6.90
2018-12-23T15:44:04.338Z,6.90
2018-12-23T15:46:35.446Z,6.80
2018-12-23T15:49:04.381Z,7.00
2018-12-23T15:51:34.226Z,6.90
2018-12-23T15:54:02.781Z,6.90
2018-12-23T15:56:31.329Z,6.90
2018-12-23T15:58:59.712Z,6.90
2018-12-23T16:01:28.146Z,7.00
2018-12-23T16:03:57.849Z,7.00
2018-12-23T16:06:26.183Z,7.00
2018-12-23T16:08:54.617Z,7.00
2018-12-23T16:11:23.042Z,7.00
2018-12-23T16:13:51.574Z,7.10
2018-12-23T16:16:20.758Z,7.10
2018-12-23T16:18:49.162Z,7.20
2018-12-23T16:21:17.636Z,7.20
2018-12-23T16:23:46.022Z,7.20
2018-12-23T16:26:14.431Z,7.10
2018-12-23T16:28:42.815Z,7.20
2018-12-23T16:31:11.207Z,7.20
2018-12-23T16:33:39.564Z,7.30
2018-12-23T16:36:07.943Z,7.30
2018-12-23T16:38:36.338Z,7.30
2018-12-23T16:41:04.716Z,7.30
2018-12-23T16:43:33.099Z,7.30
2018-12-23T16:46:01.470Z,7.40
2018-12-23T16:48:29.866Z,7.40
2018-12-23T16:50:58.226Z,7.60
2018-12-23T16:53:28.773Z,7.40
2018-12-23T16:55:57.325Z,7.50
2018-12-23T16:58:27.636Z,7.50
2018-12-23T17:01:03.009Z,7.60
2018-12-23T17:03:31.717Z,7.60
2018-12-23T17:06:00.397Z,7.70
2018-12-23T17:08:28.956Z,7.80
2018-12-23T17:10:57.505Z,7.90
2018-12-23T17:13:25.990Z,7.90
2018-12-23T17:15:54.388Z,8.00
2018-12-23T17:18:22.792Z,8.10
2018-12-23T17:23:44.284Z,8.20
2018-12-23T17:26:12.933Z,8.30
2018-12-23T17:28:41.418Z,8.40
2018-12-23T17:31:16.437Z,8.50
2018-12-23T17:33:50.644Z,8.50
2018-12-23T17:36:19.267Z,8.70
2018-12-23T17:38:53.602Z,8.80
2018-12-23T17:41:33.280Z,8.90
2018-12-23T17:44:12.538Z,9.00
2018-12-23T17:46:47.787Z,9.00
2018-12-23T17:49:28.567Z,9.00
2018-12-23T17:52:00.134Z,9.10
2018-12-23T17:54:28.859Z,9.20
2018-12-23T17:57:09.957Z,9.30
2018-12-23T17:59:45.397Z,9.30
2018-12-23T18:02:16.478Z,9.30
2018-12-23T18:07:28.451Z,9.30
2018-12-23T18:09:57.072Z,9.40
2018-12-23T18:12:27.061Z,9.40
2018-12-23T18:14:55.661Z,9.50
2018-12-23T18:17:24.316Z,9.50
2018-12-23T18:19:52.988Z,9.50
2018-12-23T18:22:22.131Z,9.60
2018-12-23T18:24:50.660Z,9.60
2018-12-23T18:27:20.549Z,9.60
2018-12-23T18:29:49.148Z,9.60
2018-12-23T18:32:17.844Z,9.60
2018-12-23T18:34:47.226Z,9.80
2018-12-23T18:37:15.847Z,9.80
2018-12-23T18:39:45.641Z,9.80
2018-12-23T18:42:15.101Z,9.90
2018-12-23T18:44:44.366Z,9.90
2018-12-23T18:47:13.555Z,10.00
2018-12-23T18:49:42.414Z,9.90
2018-12-23T18:52:11.664Z,9.90
2018-12-23T18:54:40.485Z,10.00
2018-12-23T18:58:08.157Z,10.10
2018-12-23T19:00:48.450Z,10.10
2018-12-23T19:03:29.114Z,10.10
2018-12-23T19:06:09.827Z,10.20
2018-12-23T19:08:59.522Z,10.20
2018-12-23T19:14:28.150Z,10.20
2018-12-23T19:19:56.705Z,10.30
2018-12-23T19:22:43.644Z,10.40
2018-12-23T19:25:41.743Z,10.40
2018-12-23T19:28:49.212Z,10.40
2018-12-23T19:31:32.736Z,10.40
2018-12-23T19:37:04.597Z,10.40
2018-12-23T19:42:32.424Z,10.50
2018-12-23T19:45:13.930Z,10.40
2018-12-23T19:47:58.357Z,10.50
2018-12-23T19:53:26.416Z,10.40
2018-12-23T19:58:54.138Z,10.60
2018-12-23T20:01:36.610Z,10.50
2018-12-23T20:04:21.033Z,10.40
2018-12-23T20:09:49.665Z,10.50
2018-12-23T20:12:30.192Z,10.60
2018-12-23T20:15:11.284Z,10.60
2018-12-23T20:17:54.094Z,10.60
2018-12-23T20:20:38.487Z,10.60
2018-12-23T20:23:46.005Z,10.60
2018-12-23T20:26:29.637Z,10.60
2018-12-23T20:32:23.210Z,10.70
2018-12-23T20:37:55.412Z,10.70
2018-12-23T20:43:23.985Z,10.90
2018-12-23T20:46:31.507Z,10.80
2018-12-23T20:49:15.576Z,10.90
2018-12-23T20:54:43.011Z,10.90
2018-12-23T20:57:24.519Z,10.90
2018-12-23T21:00:05.048Z,10.80
2018-12-23T21:05:29.793Z,10.70
2018-12-23T21:08:10.875Z,10.60
2018-12-23T21:10:55.123Z,10.60
2018-12-23T21:13:41.714Z,10.60
2018-12-23T21:16:25.432Z,10.60
2018-12-23T21:21:53.121Z,10.60
2018-12-23T21:27:25.470Z,10.70
2018-12-23T21:30:32.926Z,10.80
2018-12-23T21:33:13.613Z,10.70
2018-12-23T21:38:41.126Z,10.70
2018-12-23T21:44:13.550Z,10.80
2018-12-23T21:46:54.881Z,10.80
2018-12-23T21:52:46.737Z,10.80
2018-12-23T21:55:31.740Z,10.70
2018-12-23T22:00:59.737Z,10.80
2018-12-23T22:09:24.097Z,10.80
2018-12-23T22:12:07.851Z,10.80
2018-12-23T22:17:33.555Z,10.80
2018-12-23T22:22:58.515Z,10.60
2018-12-23T22:28:30.474Z,10.70
2018-12-23T22:31:11.797Z,10.70
2018-12-23T22:33:52.563Z,10.60
2018-12-23T22:36:33.581Z,10.60
2018-12-23T22:39:17.710Z,10.70
2018-12-23T22:41:59.150Z,10.70
2018-12-23T22:44:28.170Z,10.80
2018-12-23T22:46:57.107Z,10.60
2018-12-23T22:49:26.129Z,10.70
2018-12-23T22:51:55.085Z,10.70
2018-12-23T22:54:24.000Z,10.70
2018-12-23T22:56:52.925Z,10.60
2018-12-23T22:59:21.877Z,10.60
2018-12-23T23:01:50.841Z,10.70
2018-12-23T23:04:19.740Z,10.70
2018-12-23T23:06:48.778Z,10.70
2018-12-23T23:09:17.852Z,10.70
2018-12-23T23:11:50.052Z,10.80
2018-12-23T23:14:18.795Z,10.70
2018-12-23T23:16:47.694Z,10.70
2018-12-23T23:19:16.705Z,10.80
2018-12-23T23:21:45.659Z,10.80
2018-12-23T23:24:15.550Z,10.80
2018-12-23T23:26:44.634Z,10.70
2018-12-23T23:29:13.674Z,10.60
2018-12-23T23:31:42.612Z,10.60
2018-12-23T23:34:11.560Z,10.60
2018-12-23T23:36:40.568Z,10.50
2018-12-23T23:39:09.555Z,10.60
2018-12-23T23:41:38.416Z,10.50
2018-12-23T23:44:07.334Z,10.50
2018-12-23T23:46:37.762Z,10.20
2018-12-23T23:49:06.761Z,9.70
2018-12-23T23:51:37.323Z,9.30
2018-12-23T23:54:06.398Z,9.00
2018-12-23T23:56:35.470Z,8.80
2018-12-23T23:59:04.419Z,8.70
